createdAt,value
2019-05-22T00:03:43.204Z,24.50
2019-05-22T00:08:29.346Z,24.23
2019-05-22T00:13:19.316Z,23.93
2019-05-22T00:18:06.223Z,26.57
2019-05-22T00:23:02.210Z,25.43
2019-05-22T00:27:49.997Z,24.30
2019-05-22T00:32:39.774Z,25.80
2019-05-22T00:37:25.912Z,25.33
2019-05-22T00:43:01.064Z,22.77
2019-05-22T00:47:20.169Z,25.57
2019-05-22T00:52:22.687Z,24.20
2019-05-22T00:57:45.429Z,24.47
2019-05-22T01:02:33.420Z,27.70
2019-05-22T01:07:19.114Z,29.67
2019-05-22T01:12:04.205Z,29.03
2019-05-22T01:16:55.862Z,29.07
2019-05-22T01:21:40.662Z,29.70
2019-05-22T01:26:26.183Z,32.07
2019-05-22T01:31:16.211Z,29.10
2019-05-22T01:36:18.746Z,31.60
2019-05-22T01:41:10.595Z,30.70
2019-05-22T01:46:01.480Z,30.13
2019-05-22T01:50:53.552Z,30.07
2019-05-22T01:55:39.967Z,28.67
2019-05-22T02:00:28.117Z,26.80
2019-05-22T02:05:18.429Z,27.67
2019-05-22T02:10:04.027Z,30.37
2019-05-22T02:14:56.698Z,28.63
2019-05-22T02:19:44.738Z,24.87
2019-05-22T02:24:32.728Z,25.77
2019-05-22T02:29:22.254Z,24.60
2019-05-22T02:34:07.769Z,24.63
2019-05-22T02:38:54.273Z,20.83
2019-05-22T02:43:40.117Z,19.90
2019-05-22T02:48:25.792Z,18.23
2019-05-22T02:53:14.340Z,17.27
2019-05-22T02:58:02.979Z,16.10
2019-05-22T03:02:54.716Z,16.57
2019-05-22T03:07:41.474Z,16.93
2019-05-22T03:12:28.680Z,17.23
2019-05-22T03:17:37.763Z,17.90
2019-05-22T03:22:28.608Z,22.23
2019-05-22T03:27:18.583Z,23.17
2019-05-22T03:32:03.536Z,18.10
2019-05-22T03:36:48.966Z,19.57
2019-05-22T03:41:37.854Z,20.20
2019-05-22T03:46:28.920Z,19.07
2019-05-22T03:51:17.358Z,19.43
2019-05-22T03:56:02.178Z,18.47
2019-05-22T04:00:48.024Z,18.40
2019-05-22T04:05:33.123Z,18.20
2019-05-22T04:10:20.601Z,18.80
2019-05-22T04:15:09.987Z,18.70
2019-05-22T04:19:56.151Z,19.53
2019-05-22T04:24:43.982Z,20.70
2019-05-22T04:29:28.952Z,21.93
2019-05-22T04:34:14.161Z,22.13
2019-05-22T04:39:02.224Z,21.50
2019-05-22T04:43:48.236Z,22.63
2019-05-22T04:48:36.761Z,24.37
2019-05-22T04:53:21.768Z,25.63
2019-05-22T04:58:08.473Z,27.87
2019-05-22T05:02:57.148Z,27.20
2019-05-22T05:07:43.987Z,33.03
2019-05-22T05:12:31.965Z,33.57
2019-05-22T05:17:17.066Z,36.60
2019-05-22T05:22:10.347Z,35.33
2019-05-22T05:26:56.207Z,33.97
2019-05-22T05:31:47.339Z,30.50
2019-05-22T05:36:41.388Z,27.40
2019-05-22T05:41:26.222Z,26.50
2019-05-22T05:46:44.722Z,24.00
2019-05-22T05:52:07.840Z,23.63
2019-05-22T05:56:29.008Z,22.90
2019-05-22T06:01:35.828Z,22.17
2019-05-22T06:07:13.720Z,22.57
2019-05-22T06:12:05.434Z,22.03
2019-05-22T06:17:25.993Z,22.73
2019-05-22T06:22:19.291Z,24.03
2019-05-22T06:27:23.480Z,25.20
2019-05-22T06:33:02.055Z,29.47
2019-05-22T06:38:16.312Z,34.13
2019-05-22T06:44:00.053Z,34.73
2019-05-22T06:48:51.642Z,31.20
2019-05-22T06:53:36.848Z,33.23
2019-05-22T06:58:33.483Z,37.30
2019-05-22T07:03:20.768Z,33.50
2019-05-22T07:08:09.893Z,34.93
2019-05-22T07:13:04.566Z,34.33
2019-05-22T07:17:53.830Z,35.83
2019-05-22T07:22:39.510Z,36.03
2019-05-22T07:27:29.368Z,35.87
2019-05-22T07:32:16.749Z,34.37
2019-05-22T07:37:03.003Z,33.73
2019-05-22T07:41:48.248Z,33.90
2019-05-22T07:46:39.792Z,34.37
2019-05-22T07:51:26.076Z,32.33
2019-05-22T07:56:15.439Z,32.93
2019-05-22T08:01:06.611Z,34.67
2019-05-22T08:06:00.048Z,34.33
2019-05-22T08:10:52.724Z,34.63
2019-05-22T08:15:47.908Z,35.07
2019-05-22T08:20:40.141Z,34.50
2019-05-22T08:25:29.787Z,33.80
2019-05-22T08:30:17.040Z,33.00
2019-05-22T08:35:02.060Z,31.67
2019-05-22T08:39:47.852Z,32.50
2019-05-22T08:44:34.002Z,29.87
2019-05-22T08:49:20.494Z,27.53
2019-05-22T08:54:06.171Z,26.53
2019-05-22T08:58:52.392Z,24.30
2019-05-22T09:03:46.388Z,23.53
2019-05-22T09:08:28.457Z,26.90
2019-05-22T09:13:13.423Z,27.40
2019-05-22T09:17:58.344Z,26.97
2019-05-22T09:22:43.964Z,22.93
2019-05-22T09:27:31.795Z,24.27
2019-05-22T09:32:17.919Z,22.60
2019-05-22T09:37:03.450Z,19.70
2019-05-22T09:41:52.905Z,19.00
2019-05-22T09:46:38.016Z,19.97
2019-05-22T09:51:23.549Z,18.57
2019-05-22T09:56:09.322Z,17.60
2019-05-22T10:01:00.762Z,16.83
2019-05-22T10:05:45.856Z,16.27
2019-05-22T10:10:33.838Z,15.77
2019-05-22T10:15:22.906Z,16.97
2019-05-22T10:20:09.031Z,16.90
2019-05-22T10:25:12.048Z,16.73
2019-05-22T10:29:40.123Z,17.63
2019-05-22T10:34:27.086Z,18.13
2019-05-22T10:39:11.867Z,18.27
2019-05-22T10:43:58.500Z,18.73
2019-05-22T10:48:45.628Z,18.00
2019-05-22T10:53:34.133Z,16.83
2019-05-22T10:58:19.071Z,16.37
2019-05-22T11:03:04.013Z,17.33
2019-05-22T11:07:49.206Z,16.87
2019-05-22T11:12:36.732Z,17.37
2019-05-22T11:17:22.230Z,17.67
2019-05-22T11:22:07.544Z,17.50
2019-05-22T11:26:56.043Z,17.97
2019-05-22T11:31:41.358Z,17.40
2019-05-22T11:36:26.268Z,16.43
2019-05-22T11:41:11.452Z,16.67
2019-05-22T11:45:56.970Z,15.87
2019-05-22T11:50:52.966Z,14.97
2019-05-22T11:55:45.369Z,15.43
2019-05-22T12:00:37.309Z,15.73
2019-05-22T12:05:22.998Z,16.00
2019-05-22T12:10:09.010Z,16.57
2019-05-22T12:14:54.268Z,15.80
2019-05-22T12:19:40.650Z,15.47
2019-05-22T12:24:36.436Z,16.23
2019-05-22T12:29:17.299Z,16.93
2019-05-22T12:34:02.330Z,15.53
2019-05-22T12:38:48.427Z,16.87
2019-05-22T12:43:57.414Z,16.53
2019-05-22T12:48:55.168Z,13.73
2019-05-22T12:54:02.793Z,14.30
2019-05-22T12:58:56.271Z,13.17
2019-05-22T13:03:44.445Z,13.57
2019-05-22T13:08:32.055Z,13.60
2019-05-22T13:13:23.867Z,12.63
2019-05-22T13:18:14.853Z,12.67
2019-05-22T13:23:21.382Z,12.37
2019-05-22T13:28:16.024Z,12.43
2019-05-22T13:33:01.027Z,11.77
2019-05-22T13:37:46.220Z,11.53
2019-05-22T13:42:31.390Z,11.40
2019-05-22T13:47:17.171Z,12.20
2019-05-22T13:52:02.802Z,10.27
2019-05-22T13:56:47.930Z,10.50
2019-05-22T14:01:32.848Z,10.20
2019-05-22T14:06:18.183Z,10.70
2019-05-22T14:11:06.320Z,11.20
2019-05-22T14:15:56.945Z,11.13
2019-05-22T14:20:43.146Z,11.47
2019-05-22T14:25:53.019Z,11.93
2019-05-22T14:31:17.075Z,12.73
2019-05-22T14:35:57.993Z,13.17
2019-05-22T14:41:07.169Z,13.07
2019-05-22T14:45:52.335Z,14.47
2019-05-22T14:50:41.565Z,14.00
2019-05-22T14:55:28.123Z,13.93
2019-05-22T15:00:18.326Z,14.37
2019-05-22T15:05:03.913Z,14.90
2019-05-22T15:09:53.402Z,15.63
2019-05-22T15:14:38.749Z,15.27
2019-05-22T15:19:28.039Z,14.00
2019-05-22T15:24:25.932Z,13.73
2019-05-22T15:29:14.564Z,13.23
2019-05-22T15:34:04.324Z,13.93
2019-05-22T15:38:56.202Z,14.47
2019-05-22T15:43:43.271Z,14.00
2019-05-22T15:48:31.556Z,13.47
2019-05-22T15:53:26.967Z,14.00
2019-05-22T15:58:30.303Z,13.30
2019-05-22T16:03:20.955Z,13.73
2019-05-22T16:08:07.063Z,13.30
2019-05-22T16:12:59.406Z,13.60
2019-05-22T16:17:44.810Z,15.37
2019-05-22T16:22:32.533Z,16.53
2019-05-22T16:27:18.596Z,17.13
2019-05-22T16:32:08.411Z,17.00
2019-05-22T16:37:11.589Z,16.57
2019-05-22T16:42:31.523Z,16.13
2019-05-22T16:47:48.296Z,16.50
2019-05-22T16:52:35.107Z,16.33
2019-05-22T16:57:43.654Z,16.57
2019-05-22T17:02:54.336Z,16.27
2019-05-22T17:07:41.979Z,16.20
2019-05-22T17:12:55.077Z,16.57
2019-05-22T17:17:48.039Z,17.00
2019-05-22T17:22:40.512Z,18.33
2019-05-22T17:27:36.187Z,19.03
2019-05-22T17:32:40.740Z,19.07
2019-05-22T17:37:28.349Z,18.10
2019-05-22T17:42:18.548Z,17.17
2019-05-22T17:47:40.312Z,18.17
2019-05-22T17:58:02.381Z,16.97
2019-05-22T18:02:53.183Z,17.17
2019-05-22T18:07:59.844Z,16.73
2019-05-22T18:13:11.668Z,17.50
2019-05-22T18:17:59.523Z,18.00
2019-05-22T18:22:50.778Z,19.33
2019-05-22T18:27:52.155Z,17.07
2019-05-22T18:32:42.784Z,17.63
2019-05-22T18:43:19.017Z,17.40
2019-05-22T18:48:12.303Z,18.70
2019-05-22T18:53:48.051Z,17.37
2019-05-22T19:03:34.693Z,18.30
2019-05-22T19:08:20.977Z,19.17
2019-05-22T19:13:06.346Z,18.50
2019-05-22T19:17:51.565Z,18.47
2019-05-22T19:22:59.433Z,18.57
2019-05-22T19:27:27.108Z,18.27
2019-05-22T19:32:21.213Z,18.30
2019-05-22T19:37:08.476Z,17.40
2019-05-22T19:42:03.696Z,17.70
2019-05-22T19:46:52.805Z,18.03
2019-05-22T19:51:43.493Z,17.83
2019-05-22T19:56:30.956Z,17.30
2019-05-22T20:01:21.218Z,17.00
2019-05-22T20:06:11.129Z,18.27
2019-05-22T20:11:02.184Z,15.80
2019-05-22T20:15:55.745Z,15.33
2019-05-22T20:20:38.289Z,14.97
2019-05-22T20:25:43.792Z,13.67
2019-05-22T20:30:26.794Z,14.30
2019-05-22T20:35:19.201Z,13.90
2019-05-22T20:40:35.458Z,13.30
2019-05-22T21:47:31.115Z,11.73
